createdAt,value
2024-03-02T00:02:00.905Z,99.90
2024-03-02T00:05:02.507Z,99.90
2024-03-02T00:08:04.194Z,99.90
2024-03-02T00:11:05.954Z,99.90
2024-03-02T00:14:07.664Z,99.90
2024-03-02T00:17:09.225Z,99.90
2024-03-02T00:20:11.256Z,99.90
2024-03-02T00:23:12.875Z,99.90
2024-03-02T00:26:14.687Z,99.90
2024-03-02T00:29:16.275Z,99.90
2024-03-02T00:32:17.973Z,99.90
2024-03-02T00:35:19.567Z,99.90
2024-03-02T00:38:21.268Z,99.90
2024-03-02T00:41:23.698Z,99.90
2024-03-02T00:44:25.258Z,99.90
2024-03-02T00:47:26.856Z,99.90
2024-03-02T00:50:31.220Z,99.90
2024-03-02T00:53:36.069Z,99.90
2024-03-02T00:56:37.642Z,99.90
2024-03-02T00:59:39.451Z,99.90
2024-03-02T01:02:41.027Z,99.90
2024-03-02T01:05:43.288Z,99.90
2024-03-02T01:08:44.973Z,99.90
2024-03-02T01:11:46.542Z,99.90
2024-03-02T01:14:48.132Z,99.90
2024-03-02T01:17:51.900Z,99.90
2024-03-02T01:20:56.967Z,99.90
2024-03-02T01:23:58.672Z,99.90
2024-03-02T01:27:00.305Z,99.90
2024-03-02T01:30:01.902Z,99.90
2024-03-02T01:33:03.703Z,99.90
2024-03-02T01:36:05.418Z,99.90
2024-03-02T01:39:10.313Z,99.90
2024-03-02T01:42:11.970Z,99.90
2024-03-02T01:45:13.737Z,99.90
2024-03-02T01:48:15.496Z,99.90
2024-03-02T01:51:17.290Z,99.90
2024-03-02T01:54:19.183Z,99.90
2024-03-02T01:57:20.817Z,99.90
2024-03-02T02:00:22.485Z,99.90
2024-03-02T02:03:24.111Z,99.90
2024-03-02T02:06:25.728Z,99.90
2024-03-02T02:09:27.336Z,99.90
2024-03-02T02:12:28.944Z,99.90
2024-03-02T02:15:30.897Z,99.90
2024-03-02T02:18:32.697Z,99.90
2024-03-02T02:21:34.603Z,99.90
2024-03-02T02:24:36.229Z,99.90
2024-03-02T02:27:38.538Z,99.90
2024-03-02T02:30:40.245Z,99.90
2024-03-02T02:33:41.992Z,99.90
2024-03-02T02:36:44.143Z,99.90
2024-03-02T02:39:47.809Z,99.90
2024-03-02T02:42:49.541Z,99.90
2024-03-02T02:45:51.361Z,99.90
2024-03-02T02:48:54.434Z,99.90
2024-03-02T02:51:56.124Z,99.90
2024-03-02T02:54:57.764Z,99.90
2024-03-02T02:57:59.584Z,99.90
2024-03-02T03:01:01.465Z,99.90
2024-03-02T03:04:03.082Z,99.90
2024-03-02T03:07:04.627Z,99.90
2024-03-02T03:10:06.610Z,99.90
2024-03-02T03:13:09.343Z,99.90
2024-03-02T03:16:11.018Z,99.90
2024-03-02T03:19:12.581Z,99.90
2024-03-02T03:22:14.497Z,99.90
2024-03-02T03:25:16.079Z,99.90
2024-03-02T03:28:19.226Z,99.90
2024-03-02T03:31:20.928Z,99.90
2024-03-02T03:34:22.476Z,99.90
2024-03-02T03:37:25.159Z,99.90
2024-03-02T03:40:27.132Z,99.90
2024-03-02T03:43:28.880Z,99.90
2024-03-02T03:46:30.481Z,99.90
2024-03-02T03:49:32.063Z,99.90
2024-03-02T03:52:33.630Z,99.90
2024-03-02T03:55:35.192Z,99.90
2024-03-02T03:58:36.789Z,99.90
2024-03-02T04:01:38.579Z,99.90
2024-03-02T04:04:40.183Z,99.90
2024-03-02T04:07:42.228Z,99.90
2024-03-02T04:10:44.063Z,99.90
2024-03-02T04:13:45.675Z,99.90
2024-03-02T04:16:47.233Z,99.90
2024-03-02T04:19:49.053Z,99.90
2024-03-02T04:22:50.637Z,99.90
2024-03-02T04:25:52.223Z,99.90
2024-03-02T04:28:53.884Z,99.90
2024-03-02T04:31:56.228Z,99.90
2024-03-02T04:34:57.838Z,99.90
2024-03-02T04:37:59.410Z,99.90
2024-03-02T04:41:01.006Z,99.90
2024-03-02T04:44:02.977Z,99.90
2024-03-02T04:47:04.560Z,99.90
2024-03-02T04:50:06.864Z,99.90
2024-03-02T04:53:09.109Z,99.90
2024-03-02T04:56:29.723Z,99.90
2024-03-02T04:59:32.025Z,99.90
2024-03-02T05:02:33.632Z,99.90
2024-03-02T05:05:36.434Z,99.90
2024-03-02T05:08:38.006Z,99.90
2024-03-02T05:11:39.556Z,99.90
2024-03-02T05:14:41.208Z,99.90
2024-03-02T05:17:46.068Z,99.90
2024-03-02T05:20:47.988Z,99.90
2024-03-02T05:23:49.602Z,99.90
2024-03-02T05:26:51.259Z,99.90
2024-03-02T05:29:52.847Z,99.90
2024-03-02T05:32:54.479Z,99.90
2024-03-02T05:35:56.192Z,99.90
2024-03-02T05:38:57.780Z,99.90
2024-03-02T05:41:59.386Z,99.90
2024-03-02T05:45:01.081Z,99.90
2024-03-02T05:48:02.733Z,99.90
2024-03-02T05:51:04.346Z,99.90
2024-03-02T05:54:06.284Z,99.90
2024-03-02T05:57:26.429Z,99.90
2024-03-02T06:00:28.232Z,99.90
2024-03-02T06:03:29.888Z,99.90
2024-03-02T06:06:33.632Z,99.90
2024-03-02T06:09:35.319Z,99.90
2024-03-02T06:12:37.097Z,99.90
2024-03-02T06:15:38.803Z,99.90
2024-03-02T06:18:40.680Z,99.90
2024-03-02T06:21:42.456Z,99.90
2024-03-02T06:24:44.214Z,99.90
2024-03-02T06:27:45.945Z,99.90
2024-03-02T06:30:47.656Z,99.90
2024-03-02T06:33:49.743Z,99.90
2024-03-02T06:36:51.493Z,99.90
2024-03-02T06:39:53.201Z,99.90
2024-03-02T06:42:54.966Z,99.90
2024-03-02T06:45:56.858Z,99.90
2024-03-02T06:48:58.647Z,99.90
2024-03-02T06:52:00.317Z,99.90
2024-03-02T06:55:02.463Z,99.90
2024-03-02T06:58:04.207Z,99.90
2024-03-02T07:01:06.284Z,99.90
2024-03-02T07:04:08.102Z,99.90
2024-03-02T07:07:10.000Z,99.90
2024-03-02T07:10:11.719Z,99.90
2024-03-02T07:13:19.415Z,99.90
2024-03-02T07:16:29.235Z,99.90
2024-03-02T07:19:30.944Z,99.90
2024-03-02T07:22:32.628Z,99.90
2024-03-02T07:28:38.758Z,99.90
2024-03-02T07:31:41.188Z,99.90
2024-03-02T07:34:42.787Z,99.90
2024-03-02T07:37:44.432Z,99.90
2024-03-02T07:40:46.025Z,99.90
2024-03-02T07:43:47.957Z,99.90
2024-03-02T07:46:51.220Z,99.90
2024-03-02T07:49:52.838Z,99.90
2024-03-02T07:52:54.458Z,99.90
2024-03-02T07:55:58.088Z,99.90
2024-03-02T07:59:02.367Z,99.90
2024-03-02T08:02:04.035Z,99.90
2024-03-02T08:05:05.707Z,99.90
2024-03-02T08:08:07.456Z,99.90
2024-03-02T08:11:09.146Z,99.90
2024-03-02T08:14:11.060Z,99.90
2024-03-02T08:17:12.692Z,99.90
2024-03-02T08:20:14.347Z,99.90
2024-03-02T08:23:15.995Z,99.90
2024-03-02T08:26:17.678Z,99.90
2024-03-02T08:29:19.303Z,99.90
2024-03-02T08:32:20.919Z,99.90
2024-03-02T08:35:23.659Z,99.90
2024-03-02T08:38:25.312Z,99.90
2024-03-02T08:41:26.944Z,99.90
2024-03-02T08:44:28.680Z,99.90
2024-03-02T08:47:30.376Z,99.90
2024-03-02T08:50:32.122Z,99.90
2024-03-02T08:53:33.885Z,99.90
2024-03-02T08:56:35.654Z,99.90
2024-03-02T08:59:37.250Z,99.90
2024-03-02T09:02:38.957Z,99.90
2024-03-02T09:05:40.643Z,99.90
2024-03-02T09:08:42.271Z,99.90
2024-03-02T09:11:43.893Z,99.90
2024-03-02T09:14:45.555Z,99.90
2024-03-02T09:17:50.431Z,99.90
2024-03-02T09:20:52.082Z,97.60
2024-03-02T09:23:53.681Z,80.00
2024-03-02T09:26:55.499Z,73.40
2024-03-02T09:29:57.111Z,81.60
2024-03-02T09:36:03.233Z,72.70
2024-03-02T09:39:05.456Z,25.90
2024-03-02T09:42:07.375Z,24.70
2024-03-02T09:45:09.030Z,12.00
2024-03-02T09:48:11.016Z,22.30
2024-03-02T09:51:12.886Z,1.00
2024-03-02T09:54:21.909Z,1.00
2024-03-02T09:57:24.927Z,1.10
2024-03-02T10:00:26.634Z,34.70
2024-03-02T10:03:28.388Z,69.00
2024-03-02T10:06:30.093Z,78.50
2024-03-02T10:09:31.833Z,72.80
2024-03-02T10:12:33.499Z,33.70
2024-03-02T10:15:35.170Z,3.70
2024-03-02T10:18:36.819Z,1.00
2024-03-02T10:21:38.502Z,26.20
2024-03-02T10:24:40.433Z,60.00
2024-03-02T10:27:42.184Z,73.40
2024-03-02T10:30:43.814Z,93.00
2024-03-02T10:33:45.465Z,92.20
2024-03-02T10:36:47.338Z,99.90
2024-03-02T10:39:49.464Z,99.90
2024-03-02T10:42:51.550Z,99.90
2024-03-02T10:45:53.200Z,99.90
2024-03-02T10:48:54.875Z,99.90
2024-03-02T10:51:56.617Z,99.90
2024-03-02T10:54:58.364Z,99.90
2024-03-02T10:58:00.136Z,99.90
2024-03-02T11:01:02.442Z,99.90
2024-03-02T11:04:04.458Z,99.90
2024-03-02T11:07:06.247Z,99.90
2024-03-02T11:10:09.702Z,99.90
2024-03-02T11:13:11.826Z,99.90
2024-03-02T11:16:14.039Z,99.90
2024-03-02T11:19:17.806Z,99.90
2024-03-02T11:22:19.998Z,99.90
2024-03-02T11:25:21.906Z,99.90
2024-03-02T11:28:23.569Z,99.90
2024-03-02T11:31:25.154Z,99.90
2024-03-02T11:34:26.767Z,99.90
2024-03-02T11:37:28.400Z,99.90
2024-03-02T11:40:30.109Z,99.90
2024-03-02T11:43:31.907Z,95.30
2024-03-02T11:46:33.772Z,90.20
2024-03-02T11:49:35.377Z,90.80
2024-03-02T11:52:37.055Z,91.80
2024-03-02T11:55:38.893Z,82.90
2024-03-02T11:58:42.559Z,60.40
2024-03-02T12:01:45.330Z,90.90
2024-03-02T12:04:47.709Z,91.80
2024-03-02T12:07:49.345Z,79.00
2024-03-02T12:10:51.153Z,63.60
2024-03-02T12:13:53.188Z,94.20
2024-03-02T12:16:56.763Z,91.40
2024-03-02T12:19:58.394Z,91.70
2024-03-02T12:23:00.018Z,92.40
2024-03-02T12:26:01.613Z,93.00
2024-03-02T12:29:03.235Z,93.50
2024-03-02T12:32:04.860Z,99.90
2024-03-02T12:35:06.483Z,99.50
2024-03-02T12:38:12.081Z,84.70
2024-03-02T12:41:14.701Z,84.40
2024-03-02T12:44:16.285Z,61.40
2024-03-02T12:47:17.898Z,15.40
2024-03-02T12:50:20.019Z,1.60
2024-03-02T12:53:21.691Z,1.00
2024-03-02T12:56:23.324Z,12.00
2024-03-02T12:59:25.914Z,4.50
2024-03-02T13:02:28.529Z,27.40
2024-03-02T13:05:30.193Z,7.30
2024-03-02T13:08:31.857Z,8.20
2024-03-02T13:11:33.591Z,2.80
2024-03-02T13:14:36.376Z,1.00
2024-03-02T13:17:39.166Z,1.00
2024-03-02T13:20:41.203Z,1.00
2024-03-02T13:23:42.940Z,1.00
2024-03-02T13:26:44.538Z,1.00
2024-03-02T13:29:46.155Z,1.00
2024-03-02T13:32:47.821Z,1.00
2024-03-02T13:35:49.650Z,1.00
2024-03-02T13:38:51.288Z,1.00
2024-03-02T13:42:04.102Z,1.00
2024-03-02T13:45:06.619Z,1.00
2024-03-02T13:48:08.473Z,1.00
2024-03-02T13:51:10.156Z,1.00
2024-03-02T13:54:11.927Z,1.00
2024-03-02T13:57:14.081Z,1.00
2024-03-02T14:00:16.862Z,1.00
2024-03-02T14:03:18.424Z,1.00
2024-03-02T14:06:20.085Z,1.00
2024-03-02T14:09:23.484Z,1.00
2024-03-02T14:12:25.819Z,1.00
2024-03-02T14:15:27.409Z,1.00
2024-03-02T14:18:29.126Z,1.00
2024-03-02T14:21:30.882Z,1.00
2024-03-02T14:24:32.548Z,1.00
2024-03-02T14:27:50.252Z,1.00
2024-03-02T14:30:56.216Z,1.00
2024-03-02T14:33:57.945Z,1.00
2024-03-02T14:36:59.878Z,1.00
2024-03-02T14:40:01.786Z,1.00
2024-03-02T14:43:03.870Z,1.00
2024-03-02T14:46:05.641Z,1.00
2024-03-02T14:49:07.392Z,1.00
2024-03-02T14:52:10.300Z,1.00
2024-03-02T14:55:12.344Z,1.00
2024-03-02T14:58:13.971Z,1.00
2024-03-02T15:01:15.708Z,1.00
2024-03-02T15:04:19.315Z,1.00
2024-03-02T15:07:22.940Z,1.00
2024-03-02T15:10:25.591Z,1.00
2024-03-02T15:13:27.703Z,1.00
2024-03-02T15:16:29.625Z,1.00
2024-03-02T15:19:31.402Z,1.00
2024-03-02T15:22:33.010Z,1.00
2024-03-02T15:25:34.719Z,1.00
2024-03-02T15:28:36.480Z,1.00
2024-03-02T15:31:38.172Z,1.00
2024-03-02T15:34:39.938Z,1.00
2024-03-02T15:37:41.816Z,1.00
2024-03-02T15:40:43.460Z,1.00
2024-03-02T15:43:45.136Z,1.00
2024-03-02T15:46:46.979Z,1.00
2024-03-02T15:49:48.819Z,1.00
2024-03-02T15:52:50.373Z,1.00
2024-03-02T15:55:52.253Z,1.00
2024-03-02T15:58:53.963Z,1.00
2024-03-02T16:01:58.328Z,1.00
2024-03-02T16:04:59.966Z,1.00
2024-03-02T16:08:01.674Z,1.00
2024-03-02T16:11:04.631Z,1.00
2024-03-02T16:14:06.720Z,1.00
2024-03-02T16:17:10.282Z,1.00
2024-03-02T16:20:13.129Z,1.00
2024-03-02T16:23:14.716Z,1.00
2024-03-02T16:26:17.438Z,1.00
2024-03-02T16:29:20.155Z,1.00
2024-03-02T16:32:21.729Z,1.00
2024-03-02T16:35:23.318Z,1.00
2024-03-02T16:38:25.070Z,1.00
2024-03-02T16:41:30.558Z,1.00
2024-03-02T16:44:32.162Z,1.00
2024-03-02T16:47:33.912Z,1.00
2024-03-02T16:50:35.601Z,1.00
2024-03-02T16:53:37.372Z,1.00
2024-03-02T16:56:38.948Z,1.00
2024-03-02T16:59:40.598Z,1.00
2024-03-02T17:02:42.212Z,1.00
2024-03-02T17:05:43.860Z,1.00
2024-03-02T17:08:45.550Z,1.00
2024-03-02T17:11:47.290Z,1.00
2024-03-02T17:14:49.052Z,1.00
2024-03-02T17:17:50.621Z,1.00
2024-03-02T17:20:52.240Z,1.00
2024-03-02T17:23:53.822Z,1.00
2024-03-02T17:26:55.624Z,3.40
2024-03-02T17:29:57.278Z,15.50
2024-03-02T17:32:59.003Z,21.10
2024-03-02T17:36:00.686Z,31.40
2024-03-02T17:39:04.614Z,39.10
2024-03-02T17:42:06.320Z,48.90
2024-03-02T17:45:08.957Z,54.90
2024-03-02T17:48:13.121Z,62.20
2024-03-02T17:51:17.802Z,65.90
2024-03-02T17:54:19.454Z,70.60
2024-03-02T17:57:21.375Z,72.00
2024-03-02T18:00:22.951Z,76.60
2024-03-02T18:03:25.106Z,78.60
2024-03-02T18:06:26.734Z,84.40
2024-03-02T18:09:28.670Z,89.10
2024-03-02T18:12:30.327Z,86.70
2024-03-02T18:15:32.555Z,88.90
2024-03-02T18:18:34.208Z,90.00
2024-03-02T18:21:35.942Z,90.80
2024-03-02T18:24:38.224Z,90.70
2024-03-02T18:27:40.394Z,91.20
2024-03-02T18:30:45.811Z,89.30
2024-03-02T18:33:47.735Z,84.60
2024-03-02T18:36:50.770Z,86.10
2024-03-02T18:39:52.557Z,83.40
2024-03-02T18:42:54.211Z,85.30
2024-03-02T18:45:57.028Z,82.30
2024-03-02T18:49:01.777Z,85.70
2024-03-02T18:52:03.550Z,89.50
2024-03-02T18:55:06.502Z,90.70
2024-03-02T18:58:08.379Z,91.20
2024-03-02T19:01:10.469Z,91.50
2024-03-02T19:04:12.322Z,92.20
2024-03-02T19:07:14.760Z,91.60
2024-03-02T19:10:17.182Z,92.40
2024-03-02T19:13:18.970Z,92.50
2024-03-02T19:16:20.698Z,93.70
2024-03-02T19:19:22.695Z,93.50
2024-03-02T19:22:25.777Z,94.30
2024-03-02T19:25:28.187Z,95.00
2024-03-02T19:28:30.017Z,94.60
2024-03-02T19:31:31.700Z,94.80
2024-03-02T19:34:33.332Z,94.70
2024-03-02T19:37:37.906Z,95.60
2024-03-02T19:40:40.639Z,96.40
2024-03-02T19:43:43.069Z,97.80
2024-03-02T19:46:44.681Z,98.30
2024-03-02T19:49:46.465Z,98.30
2024-03-02T19:52:48.246Z,97.80
2024-03-02T19:55:49.790Z,99.00
2024-03-02T19:58:51.467Z,99.90
2024-03-02T20:01:53.116Z,99.90
2024-03-02T20:04:54.906Z,99.90
2024-03-02T20:07:56.624Z,99.90
2024-03-02T20:10:58.264Z,99.90
2024-03-02T20:14:00.106Z,99.90
2024-03-02T20:17:01.983Z,99.90
2024-03-02T20:20:04.620Z,99.90
2024-03-02T20:23:06.921Z,99.90
2024-03-02T20:26:09.263Z,99.90
2024-03-02T20:29:10.872Z,99.90
2024-03-02T20:32:12.892Z,99.90
2024-03-02T20:35:14.672Z,99.90
2024-03-02T20:38:16.370Z,99.90
2024-03-02T20:41:18.449Z,99.90
2024-03-02T20:44:23.427Z,99.90
2024-03-02T20:47:26.305Z,99.90
2024-03-02T20:50:27.909Z,99.90
2024-03-02T20:53:29.566Z,99.90
2024-03-02T20:56:31.700Z,99.90
2024-03-02T20:59:33.301Z,99.90
2024-03-02T21:02:35.701Z,99.90
2024-03-02T21:05:37.334Z,99.90
2024-03-02T21:08:38.995Z,99.90
2024-03-02T21:11:45.482Z,99.90
2024-03-02T21:14:47.344Z,99.90
2024-03-02T21:17:49.386Z,99.90
2024-03-02T21:20:50.971Z,99.90
2024-03-02T21:23:52.570Z,99.90
2024-03-02T21:26:54.209Z,99.90
2024-03-02T21:29:55.832Z,99.90
2024-03-02T21:32:57.517Z,99.90
2024-03-02T21:35:59.335Z,99.90
2024-03-02T21:39:04.465Z,99.90
2024-03-02T21:42:08.026Z,99.90
2024-03-02T21:45:09.686Z,99.90
2024-03-02T21:48:11.349Z,99.90
2024-03-02T21:51:13.312Z,99.90
2024-03-02T21:54:14.920Z,99.90
2024-03-02T21:57:21.026Z,99.90
2024-03-02T22:00:22.797Z,99.90
2024-03-02T22:03:24.416Z,99.90
2024-03-02T22:06:26.084Z,99.90
2024-03-02T22:09:27.663Z,99.90
2024-03-02T22:12:29.345Z,99.90
2024-03-02T22:15:30.891Z,99.90
2024-03-02T22:18:32.710Z,99.90
2024-03-02T22:21:34.459Z,99.90
2024-03-02T22:24:36.168Z,99.90
2024-03-02T22:27:41.988Z,99.90
2024-03-02T22:30:44.516Z,99.90
2024-03-02T22:33:46.203Z,99.90
2024-03-02T22:36:47.859Z,99.90
2024-03-02T22:39:49.542Z,99.90
2024-03-02T22:42:51.273Z,99.90
2024-03-02T22:45:53.063Z,99.90
2024-03-02T22:48:55.360Z,99.90
2024-03-02T22:51:57.985Z,99.90
2024-03-02T22:54:59.721Z,99.90
2024-03-02T22:58:01.404Z,99.90
2024-03-02T23:01:04.836Z,99.90
2024-03-02T23:04:06.603Z,99.90
2024-03-02T23:07:08.388Z,99.90
2024-03-02T23:10:10.223Z,99.90
2024-03-02T23:13:12.465Z,99.90
2024-03-02T23:16:14.184Z,99.90
2024-03-02T23:19:21.769Z,99.90
2024-03-02T23:22:23.997Z,99.90
2024-03-02T23:25:25.630Z,99.90
2024-03-02T23:28:27.292Z,99.90
2024-03-02T23:31:28.909Z,99.90
2024-03-02T23:34:30.592Z,99.90
2024-03-02T23:37:32.800Z,99.90
2024-03-02T23:40:54.398Z,99.90
2024-03-02T23:44:02.216Z,99.90
2024-03-02T23:47:04.178Z,99.90
2024-03-02T23:50:05.908Z,99.90
2024-03-02T23:53:07.549Z,99.90
2024-03-02T23:56:09.162Z,99.90
2024-03-02T23:59:10.780Z,99.90
